Terminal Aerodrome Forecast
Issued by NWS Omaha/Valley, NE

Home | Current Version | Previous Version | Graphics & Text | Print | Product List | Glossary On
Versions: 1 2 3 4 5 6 7 8 9 10 11 12 13 14 15 16 17 18
000
FTUS43 KOAX 242008 AAA
TAFOFK
TAF AMD
KOFK 242008Z 2420/2518 18005KT P6SM SCT040 SCT250
     FM250300 12007KT P6SM BKN100
      TEMPO 2503/2505 4SM -TSRA OVC030CB
     FM250800 15008KT P6SM SCT020 OVC070 PROB30 2508/2511 4SM -TSRA
      OVC020CB
     FM251400 12012KT P6SM BKN025=

USA.gov is the U.S. government's official web portal to all federal, state and local government web resources and services.